Terminal Aerodrome Forecast
Issued by NWS Binghamton, NY

Home | Current Version | Previous Version | Text Only | Print | Product List | Glossary On
Versions: 1 2 3 4 5 6 7 8 9 10 11 12 13 14 15 16 17
000
FTUS41 KBGM 260527
TAFAVP
TAF
KAVP 260527Z 2606/2706 21005KT P6SM BKN070
      TEMPO 2606/2610 3SM BR BKN025
     FM261000 VRB05KT P6SM BKN025
     FM261300 28006KT P6SM BKN045
     FM261600 32007KT P6SM SCT090
     FM270300 VRB04KT P6SM FEW250=

USA.gov is the U.S. government's official web portal to all federal, state and local government web resources and services.